sensor_id;sensor_type;location;lat;lon;timestamp;pressure;altitude;pressure_sealevel;temperature;humidity
11053;BME280;55230;42.602;23.470;2023-03-23T00:02:14;93463.53;;;5.18;100.00
11053;BME280;55230;42.602;23.470;2023-03-23T00:04:41;93364.81;;;4.36;100.00
11053;BME280;55230;42.602;23.470;2023-03-23T00:07:09;93371.50;;;4.25;100.00
11053;BME280;55230;42.602;23.470;2023-03-23T00:09:39;93474.38;;;5.11;100.00
11053;BME280;55230;42.602;23.470;2023-03-23T00:12:06;93474.38;;;5.11;100.00
11053;BME280;55230;42.602;23.470;2023-03-23T00:14:33;93462.88;;;5.14;100.00
11053;BME280;55230;42.602;23.470;2023-03-23T00:17:07;93460.19;;;5.14;100.00
11053;BME280;55230;42.602;23.470;2023-03-23T00:19:36;93212.19;;;3.43;100.00
11053;BME280;55230;42.602;23.470;2023-03-23T00:22:11;93115.34;;;2.68;100.00
11053;BME280;55230;42.602;23.470;2023-03-23T00:24:39;93450.06;;;4.86;100.00
11053;BME280;55230;42.602;23.470;2023-03-23T00:27:06;93435.03;;;4.53;100.00
11053;BME280;55230;42.602;23.470;2023-03-23T00:29:34;93468.97;;;4.95;100.00
11053;BME280;55230;42.602;23.470;2023-03-23T00:32:00;93486.34;;;4.84;100.00
11053;BME280;55230;42.602;23.470;2023-03-23T00:34:27;93171.34;;;2.38;100.00
11053;BME280;55230;42.602;23.470;2023-03-23T00:36:58;93481.28;;;4.89;100.00
11053;BME280;55230;42.602;23.470;2023-03-23T00:39:26;93457.66;;;4.68;100.00
11053;BME280;55230;42.602;23.470;2023-03-23T00:41:55;93445.09;;;4.45;100.00
11053;BME280;55230;42.602;23.470;2023-03-23T00:44:26;93475.72;;;4.80;100.00
11053;BME280;55230;42.602;23.470;2023-03-23T00:46:54;93573.78;;;5.03;100.00
11053;BME280;55230;42.602;23.470;2023-03-23T00:49:23;93489.59;;;5.14;100.00
11053;BME280;55230;42.602;23.470;2023-03-23T00:51:51;93501.09;;;5.11;100.00
11053;BME280;55230;42.602;23.470;2023-03-23T00:54:18;93442.50;;;4.61;100.00
11053;BME280;55230;42.602;23.470;2023-03-23T00:56:46;93504.38;;;5.38;100.00
11053;BME280;55230;42.602;23.470;2023-03-23T00:59:14;93197.91;;;3.34;100.00
11053;BME280;55230;42.602;23.470;2023-03-23T01:01:41;93103.09;;;2.74;100.00
11053;BME280;55230;42.602;23.470;2023-03-23T01:04:08;93500.25;;;5.69;100.00
11053;BME280;55230;42.602;23.470;2023-03-23T01:06:39;93525.72;;;5.77;100.00
11053;BME280;55230;42.602;23.470;2023-03-23T01:09:06;93488.13;;;5.84;100.00
11053;BME280;55230;42.602;23.470;2023-03-23T01:11:34;93449.03;;;5.55;100.00
11053;BME280;55230;42.602;23.470;2023-03-23T01:14:01;93485.81;;;5.87;100.00
11053;BME280;55230;42.602;23.470;2023-03-23T01:16:29;93458.81;;;5.61;100.00
11053;BME280;55230;42.602;23.470;2023-03-23T01:18:56;93380.41;;;5.13;100.00
11053;BME280;55230;42.602;23.470;2023-03-23T01:21:22;93496.59;;;5.83;100.00
11053;BME280;55230;42.602;23.470;2023-03-23T01:23:50;93481.47;;;5.73;100.00
11053;BME280;55230;42.602;23.470;2023-03-23T01:26:19;93350.38;;;4.89;100.00
11053;BME280;55230;42.602;23.470;2023-03-23T01:28:46;93366.81;;;5.07;100.00
11053;BME280;55230;42.602;23.470;2023-03-23T01:31:14;93474.81;;;5.81;100.00
11053;BME280;55230;42.602;23.470;2023-03-23T01:33:44;93462.88;;;5.85;100.00
11053;BME280;55230;42.602;23.470;2023-03-23T01:36:13;93463.56;;;5.90;100.00
11053;BME280;55230;42.602;23.470;2023-03-23T01:38:41;93453.63;;;5.90;100.00
11053;BME280;55230;42.602;23.470;2023-03-23T01:41:08;93353.75;;;4.93;100.00
11053;BME280;55230;42.602;23.470;2023-03-23T01:43:34;93476.38;;;5.62;100.00
11053;BME280;55230;42.602;23.470;2023-03-23T01:46:01;93465.00;;;5.58;100.00
11053;BME280;55230;42.602;23.470;2023-03-23T01:48:30;93463.00;;;5.62;100.00
11053;BME280;55230;42.602;23.470;2023-03-23T01:51:03;93380.09;;;5.11;100.00
11053;BME280;55230;42.602;23.470;2023-03-23T01:53:33;93354.16;;;4.92;100.00
11053;BME280;55230;42.602;23.470;2023-03-23T01:56:03;93501.47;;;5.49;100.00
11053;BME280;55230;42.602;23.470;2023-03-23T01:58:32;93294.44;;;4.27;100.00
11053;BME280;55230;42.602;23.470;2023-03-23T02:01:02;93451.50;;;5.46;100.00
11053;BME280;55230;42.602;23.470;2023-03-23T02:03:31;93361.03;;;4.53;100.00
11053;BME280;55230;42.602;23.470;2023-03-23T02:05:58;93313.19;;;4.43;100.00
11053;BME280;55230;42.602;23.470;2023-03-23T02:08:28;93452.75;;;5.41;100.00
11053;BME280;55230;42.602;23.470;2023-03-23T02:10:58;93209.44;;;3.70;100.00
11053;BME280;55230;42.602;23.470;2023-03-23T02:13:25;93459.81;;;5.32;100.00
11053;BME280;55230;42.602;23.470;2023-03-23T02:16:00;93323.25;;;4.35;100.00
11053;BME280;55230;42.602;23.470;2023-03-23T02:18:38;93468.13;;;5.18;100.00
11053;BME280;55230;42.602;23.470;2023-03-23T02:21:40;93455.16;;;5.16;100.00
11053;BME280;55230;42.602;23.470;2023-03-23T02:27:11;93450.81;;;5.06;100.00
11053;BME280;55230;42.602;23.470;2023-03-23T02:33:20;93461.63;;;4.99;100.00
11053;BME280;55230;42.602;23.470;2023-03-23T02:35:56;93463.28;;;4.93;100.00
11053;BME280;55230;42.602;23.470;2023-03-23T02:38:29;93473.28;;;4.89;100.00
11053;BME280;55230;42.602;23.470;2023-03-23T02:41:00;93472.25;;;4.83;100.00
11053;BME280;55230;42.602;23.470;2023-03-23T02:43:31;93344.63;;;3.93;100.00
11053;BME280;55230;42.602;23.470;2023-03-23T02:46:00;93352.94;;;3.98;100.00
11053;BME280;55230;42.602;23.470;2023-03-23T02:48:30;93359.00;;;3.99;100.00
11053;BME280;55230;42.602;23.470;2023-03-23T02:50:58;93495.97;;;4.58;100.00
11053;BME280;55230;42.602;23.470;2023-03-23T02:53:29;92965.41;;;1.13;100.00
11053;BME280;55230;42.602;23.470;2023-03-23T02:55:57;93491.56;;;4.25;100.00
11053;BME280;55230;42.602;23.470;2023-03-23T02:58:28;93473.53;;;4.75;100.00
11053;BME280;55230;42.602;23.470;2023-03-23T03:00:55;93345.94;;;3.85;100.00
11053;BME280;55230;42.602;23.470;2023-03-23T03:03:24;93485.31;;;4.97;100.00
11053;BME280;55230;42.602;23.470;2023-03-23T03:06:00;93450.09;;;4.63;100.00
11053;BME280;55230;42.602;23.470;2023-03-23T03:08:34;93494.88;;;4.98;100.00
11053;BME280;55230;42.602;23.470;2023-03-23T03:11:06;93436.88;;;4.56;100.00
11053;BME280;55230;42.602;23.470;2023-03-23T03:13:40;93252.75;;;3.31;100.00
11053;BME280;55230;42.602;23.470;2023-03-23T03:16:16;93497.88;;;5.00;100.00
11053;BME280;55230;42.602;23.470;2023-03-23T03:18:49;93451.56;;;4.67;100.00
11053;BME280;55230;42.602;23.470;2023-03-23T03:21:21;93508.09;;;5.05;100.00
11053;BME280;55230;42.602;23.470;2023-03-23T03:23:53;93496.94;;;5.10;100.00
11053;BME280;55230;42.602;23.470;2023-03-23T03:26:22;93505.72;;;5.11;100.00
11053;BME280;55230;42.602;23.470;2023-03-23T03:28:52;93286.03;;;3.66;100.00
11053;BME280;55230;42.602;23.470;2023-03-23T03:31:22;93501.09;;;5.11;100.00
11053;BME280;55230;42.602;23.470;2023-03-23T03:33:50;93500.34;;;5.11;100.00
11053;BME280;55230;42.602;23.470;2023-03-23T03:36:20;93460.81;;;4.83;100.00
11053;BME280;55230;42.602;23.470;2023-03-23T03:38:49;93495.91;;;4.61;100.00
11053;BME280;55230;42.602;23.470;2023-03-23T03:41:18;93356.81;;;3.47;100.00
11053;BME280;55230;42.602;23.470;2023-03-23T03:43:45;93067.84;;;1.41;100.00
11053;BME280;55230;42.602;23.470;2023-03-23T03:46:12;93397.56;;;3.94;100.00
11053;BME280;55230;42.602;23.470;2023-03-23T03:48:39;93505.72;;;4.68;100.00
11053;BME280;55230;42.602;23.470;2023-03-23T03:51:05;93045.50;;;1.08;100.00
11053;BME280;55230;42.602;23.470;2023-03-23T03:53:35;93452.84;;;4.17;100.00
11053;BME280;55230;42.602;23.470;2023-03-23T03:56:02;93507.25;;;4.69;100.00
11053;BME280;55230;42.602;23.470;2023-03-23T03:58:29;93509.44;;;4.74;100.00
11053;BME280;55230;42.602;23.470;2023-03-23T04:00:58;93519.28;;;4.77;100.00
11053;BME280;55230;42.602;23.470;2023-03-23T04:03:25;93499.66;;;4.87;100.00
11053;BME280;55230;42.602;23.470;2023-03-23T04:05:52;93445.28;;;4.35;100.00
11053;BME280;55230;42.602;23.470;2023-03-23T04:08:21;93253.75;;;2.68;100.00
11053;BME280;55230;42.602;23.470;2023-03-23T04:10:49;93503.75;;;5.11;100.00
11053;BME280;55230;42.602;23.470;2023-03-23T04:13:17;93511.66;;;5.18;100.00
11053;BME280;55230;42.602;23.470;2023-03-23T04:15:44;93419.09;;;4.69;100.00
11053;BME280;55230;42.602;23.470;2023-03-23T04:18:12;93442.53;;;4.81;100.00
11053;BME280;55230;42.602;23.470;2023-03-23T04:20:40;93544.81;;;5.40;100.00
11053;BME280;55230;42.602;23.470;2023-03-23T04:23:07;93390.47;;;4.69;100.00
11053;BME280;55230;42.602;23.470;2023-03-23T04:25:34;93451.56;;;5.07;100.00
11053;BME280;55230;42.602;23.470;2023-03-23T04:28:03;93397.78;;;4.85;100.00
11053;BME280;55230;42.602;23.470;2023-03-23T04:30:30;93539.66;;;5.49;100.00
11053;BME280;55230;42.602;23.470;2023-03-23T04:32:57;93484.28;;;5.50;100.00
11053;BME280;55230;42.602;23.470;2023-03-23T04:35:26;93502.94;;;5.69;100.00
11053;BME280;55230;42.602;23.470;2023-03-23T04:37:55;93504.31;;;5.77;100.00
11053;BME280;55230;42.602;23.470;2023-03-23T04:40:24;93524.19;;;5.76;100.00
11053;BME280;55230;42.602;23.470;2023-03-23T04:42:51;93490.75;;;5.68;100.00
11053;BME280;55230;42.602;23.470;2023-03-23T04:45:24;93512.72;;;5.96;100.00
11053;BME280;55230;42.602;23.470;2023-03-23T04:47:52;93361.19;;;5.02;100.00
11053;BME280;55230;42.602;23.470;2023-03-23T04:50:23;93491.94;;;6.19;100.00
11053;BME280;55230;42.602;23.470;2023-03-23T04:52:51;93500.03;;;6.32;100.00
11053;BME280;55230;42.602;23.470;2023-03-23T04:55:20;93502.31;;;6.33;100.00
11053;BME280;55230;42.602;23.470;2023-03-23T04:57:47;93516.88;;;5.61;100.00
11053;BME280;55230;42.602;23.470;2023-03-23T05:00:14;93446.69;;;4.82;100.00
11053;BME280;55230;42.602;23.470;2023-03-23T05:02:44;93508.00;;;5.28;100.00
11053;BME280;55230;42.602;23.470;2023-03-23T05:05:13;93213.97;;;3.30;100.00
11053;BME280;55230;42.602;23.470;2023-03-23T05:07:41;93414.00;;;4.74;100.00
11053;BME280;55230;42.602;23.470;2023-03-23T05:10:10;93267.88;;;3.81;100.00
11053;BME280;55230;42.602;23.470;2023-03-23T05:12:37;93455.28;;;4.93;100.00
11053;BME280;55230;42.602;23.470;2023-03-23T05:15:05;93536.03;;;5.59;100.00
11053;BME280;55230;42.602;23.470;2023-03-23T05:17:32;93430.13;;;5.10;100.00
11053;BME280;55230;42.602;23.470;2023-03-23T05:20:03;93524.19;;;5.76;100.00
11053;BME280;55230;42.602;23.470;2023-03-23T05:22:31;93532.38;;;5.69;100.00
11053;BME280;55230;42.602;23.470;2023-03-23T05:24:58;93522.28;;;5.97;100.00
11053;BME280;55230;42.602;23.470;2023-03-23T05:27:24;93326.88;;;4.45;100.00
11053;BME280;55230;42.602;23.470;2023-03-23T05:29:53;93529.47;;;6.48;100.00
11053;BME280;55230;42.602;23.470;2023-03-23T05:32:20;93539.69;;;6.69;100.00
11053;BME280;55230;42.602;23.470;2023-03-23T05:34:54;93458.09;;;6.25;100.00
11053;BME280;55230;42.602;23.470;2023-03-23T05:37:22;93541.78;;;7.06;100.00
11053;BME280;55230;42.602;23.470;2023-03-23T05:39:48;93577.41;;;6.90;100.00
11053;BME280;55230;42.602;23.470;2023-03-23T05:42:18;93549.75;;;7.38;100.00
11053;BME280;55230;42.602;23.470;2023-03-23T05:44:45;93561.88;;;6.53;100.00
11053;BME280;55230;42.602;23.470;2023-03-23T05:47:12;93552.66;;;6.22;100.00
11053;BME280;55230;42.602;23.470;2023-03-23T05:49:39;93506.22;;;5.97;100.00
11053;BME280;55230;42.602;23.470;2023-03-23T05:52:05;93601.38;;;5.39;100.00
11053;BME280;55230;42.602;23.470;2023-03-23T05:54:34;93370.91;;;4.76;100.00
11053;BME280;55230;42.602;23.470;2023-03-23T05:57:01;93561.28;;;6.14;100.00
11053;BME280;55230;42.602;23.470;2023-03-23T05:59:28;93335.19;;;4.86;100.00
11053;BME280;55230;42.602;23.470;2023-03-23T06:01:55;93552.75;;;6.51;100.00
11053;BME280;55230;42.602;23.470;2023-03-23T06:04:23;93471.50;;;5.93;100.00
11053;BME280;55230;42.602;23.470;2023-03-23T06:06:50;93556.00;;;6.58;100.00
11053;BME280;55230;42.602;23.470;2023-03-23T06:09:18;93569.91;;;6.21;100.00
11053;BME280;55230;42.602;23.470;2023-03-23T06:11:46;93551.06;;;6.09;100.00
11053;BME280;55230;42.602;23.470;2023-03-23T06:14:13;93502.19;;;6.05;100.00
11053;BME280;55230;42.602;23.470;2023-03-23T06:16:41;93560.94;;;6.44;100.00
11053;BME280;55230;42.602;23.470;2023-03-23T06:19:08;93561.59;;;6.32;100.00
11053;BME280;55230;42.602;23.470;2023-03-23T06:21:36;93532.31;;;6.25;100.00
11053;BME280;55230;42.602;23.470;2023-03-23T06:24:04;93515.78;;;6.30;100.00
11053;BME280;55230;42.602;23.470;2023-03-23T06:26:33;93578.81;;;7.11;100.00
11053;BME280;55230;42.602;23.470;2023-03-23T06:29:03;93545.16;;;6.94;100.00
11053;BME280;55230;42.602;23.470;2023-03-23T06:31:37;93432.06;;;5.61;100.00
11053;BME280;55230;42.602;23.470;2023-03-23T06:34:04;93614.03;;;6.65;100.00
11053;BME280;55230;42.602;23.470;2023-03-23T06:36:31;93561.13;;;6.85;100.00
11053;BME280;55230;42.602;23.470;2023-03-23T06:38:57;93395.09;;;5.40;100.00
11053;BME280;55230;42.602;23.470;2023-03-23T06:41:24;93587.47;;;6.54;100.00
11053;BME280;55230;42.602;23.470;2023-03-23T06:43:51;93526.06;;;6.31;100.00
11053;BME280;55230;42.602;23.470;2023-03-23T06:46:20;93535.19;;;6.66;100.00
11053;BME280;55230;42.602;23.470;2023-03-23T06:48:47;93507.03;;;6.10;100.00
11053;BME280;55230;42.602;23.470;2023-03-23T06:51:15;93572.16;;;6.87;100.00
11053;BME280;55230;42.602;23.470;2023-03-23T06:53:41;93594.13;;;7.27;100.00
11053;BME280;55230;42.602;23.470;2023-03-23T06:56:08;93458.81;;;5.61;100.00
11053;BME280;55230;42.602;23.470;2023-03-23T06:58:35;93495.13;;;6.75;100.00
11053;BME280;55230;42.602;23.470;2023-03-23T07:01:03;93601.06;;;7.40;100.00
11053;BME280;55230;42.602;23.470;2023-03-23T07:03:32;93479.88;;;6.27;100.00
11053;BME280;55230;42.602;23.470;2023-03-23T07:05:58;93682.47;;;7.18;100.00
11053;BME280;55230;42.602;23.470;2023-03-23T07:08:25;93613.75;;;7.07;100.00
11053;BME280;55230;42.602;23.470;2023-03-23T07:10:53;93589.75;;;7.33;100.00
11053;BME280;55230;42.602;23.470;2023-03-23T07:13:20;93311.44;;;5.56;100.00
11053;BME280;55230;42.602;23.470;2023-03-23T07:15:47;93637.38;;;8.27;100.00
11053;BME280;55230;42.602;23.470;2023-03-23T07:18:16;93608.72;;;8.37;100.00
11053;BME280;55230;42.602;23.470;2023-03-23T07:20:46;93594.22;;;8.59;100.00
11053;BME280;55230;42.602;23.470;2023-03-23T07:23:13;93575.16;;;8.29;100.00
11053;BME280;55230;42.602;23.470;2023-03-23T07:25:40;93498.81;;;8.64;100.00
11053;BME280;55230;42.602;23.470;2023-03-23T07:28:07;93604.38;;;9.02;100.00
11053;BME280;55230;42.602;23.470;2023-03-23T07:30:34;93611.34;;;8.99;100.00
11053;BME280;55230;42.602;23.470;2023-03-23T07:33:04;93605.06;;;8.56;100.00
11053;BME280;55230;42.602;23.470;2023-03-23T07:35:31;93612.66;;;8.70;100.00
11053;BME280;55230;42.602;23.470;2023-03-23T07:38:00;93605.94;;;9.24;100.00
11053;BME280;55230;42.602;23.470;2023-03-23T07:40:27;93572.78;;;9.71;100.00
11053;BME280;55230;42.602;23.470;2023-03-23T07:42:58;93618.34;;;10.52;100.00
11053;BME280;55230;42.602;23.470;2023-03-23T07:45:25;93622.66;;;10.80;100.00
11053;BME280;55230;42.602;23.470;2023-03-23T07:47:53;93563.69;;;10.60;96.56
11053;BME280;55230;42.602;23.470;2023-03-23T07:50:20;93562.00;;;11.02;92.58
11053;BME280;55230;42.602;23.470;2023-03-23T07:52:49;93634.81;;;11.60;89.76
11053;BME280;55230;42.602;23.470;2023-03-23T07:55:17;93669.31;;;11.47;85.94
11053;BME280;55230;42.602;23.470;2023-03-23T07:57:45;93638.59;;;11.05;90.16
11053;BME280;55230;42.602;23.470;2023-03-23T08:00:12;93444.97;;;9.54;88.23
11053;BME280;55230;42.602;23.470;2023-03-23T08:02:45;93636.09;;;10.71;87.32
11053;BME280;55230;42.602;23.470;2023-03-23T08:05:12;93648.00;;;10.91;87.27
11053;BME280;55230;42.602;23.470;2023-03-23T08:07:40;93469.47;;;9.77;86.86
11053;BME280;55230;42.602;23.470;2023-03-23T08:10:08;93722.97;;;10.96;86.32
11053;BME280;55230;42.602;23.470;2023-03-23T08:12:39;93604.53;;;10.40;91.49
11053;BME280;55230;42.602;23.470;2023-03-23T08:15:07;93364.94;;;8.93;94.70
11053;BME280;55230;42.602;23.470;2023-03-23T08:17:35;93640.09;;;10.57;95.40
11053;BME280;55230;42.602;23.470;2023-03-23T08:20:02;93642.53;;;10.42;95.89
11053;BME280;55230;42.602;23.470;2023-03-23T08:22:36;93648.03;;;10.30;96.81
11053;BME280;55230;42.602;23.470;2023-03-23T08:25:04;93658.44;;;10.40;97.41
11053;BME280;55230;42.602;23.470;2023-03-23T08:27:32;93685.25;;;10.75;95.26
11053;BME280;55230;42.602;23.470;2023-03-23T08:30:00;93521.31;;;9.99;99.66
11053;BME280;55230;42.602;23.470;2023-03-23T08:32:27;93647.53;;;10.84;96.99
11053;BME280;55230;42.602;23.470;2023-03-23T08:34:54;93495.28;;;9.96;98.65
11053;BME280;55230;42.602;23.470;2023-03-23T08:37:21;93551.22;;;9.92;99.19
11053;BME280;55230;42.602;23.470;2023-03-23T08:39:50;93565.69;;;10.07;100.00
11053;BME280;55230;42.602;23.470;2023-03-23T08:42:17;93570.34;;;10.37;100.00
11053;BME280;55230;42.602;23.470;2023-03-23T08:44:45;93641.28;;;10.96;97.24
11053;BME280;55230;42.602;23.470;2023-03-23T08:47:13;93670.41;;;11.10;94.33
11053;BME280;55230;42.602;23.470;2023-03-23T08:49:40;93565.13;;;10.43;99.24
11053;BME280;55230;42.602;23.470;2023-03-23T08:52:07;93645.44;;;10.88;96.72
11053;BME280;55230;42.602;23.470;2023-03-23T08:54:34;93589.44;;;10.52;94.32
11053;BME280;55230;42.602;23.470;2023-03-23T08:57:02;93654.81;;;11.14;85.21
11053;BME280;55230;42.602;23.470;2023-03-23T08:59:28;93649.25;;;11.84;85.26
11053;BME280;55230;42.602;23.470;2023-03-23T09:01:55;93645.34;;;11.67;82.49
11053;BME280;55230;42.602;23.470;2023-03-23T09:04:24;93505.31;;;10.84;83.17
11053;BME280;55230;42.602;23.470;2023-03-23T09:06:51;93656.00;;;11.71;76.06
11053;BME280;55230;42.602;23.470;2023-03-23T09:09:18;93656.97;;;11.28;70.59
11053;BME280;55230;42.602;23.470;2023-03-23T09:11:45;93376.03;;;9.56;76.96
11053;BME280;55230;42.602;23.470;2023-03-23T09:14:11;93556.09;;;10.68;72.22
11053;BME280;55230;42.602;23.470;2023-03-23T09:16:38;93615.88;;;11.33;70.72
11053;BME280;55230;42.602;23.470;2023-03-23T09:19:05;93567.88;;;11.28;68.78
11053;BME280;55230;42.602;23.470;2023-03-23T09:21:35;93652.84;;;11.81;68.15
11053;BME280;55230;42.602;23.470;2023-03-23T09:24:02;93655.34;;;11.48;68.60
11053;BME280;55230;42.602;23.470;2023-03-23T09:26:30;93653.19;;;11.25;70.29
11053;BME280;55230;42.602;23.470;2023-03-23T09:28:57;93640.75;;;11.19;75.62
11053;BME280;55230;42.602;23.470;2023-03-23T09:31:24;93645.63;;;10.93;74.62
11053;BME280;55230;42.602;23.470;2023-03-23T09:33:51;93614.72;;;10.85;77.13
11053;BME280;55230;42.602;23.470;2023-03-23T09:36:19;93641.44;;;11.86;76.66
11053;BME280;55230;42.602;23.470;2023-03-23T09:38:48;93613.50;;;12.07;68.20
11053;BME280;55230;42.602;23.470;2023-03-23T09:41:31;93637.88;;;13.00;67.54
11053;BME280;55230;42.602;23.470;2023-03-23T09:44:04;93570.44;;;13.20;64.55
11053;BME280;55230;42.602;23.470;2023-03-23T09:46:42;93716.06;;;14.19;63.51
11053;BME280;55230;42.602;23.470;2023-03-23T09:49:15;93647.41;;;14.13;61.18
11053;BME280;55230;42.602;23.470;2023-03-23T09:51:45;93638.69;;;14.09;57.13
11053;BME280;55230;42.602;23.470;2023-03-23T09:54:19;93559.00;;;13.39;58.74
11053;BME280;55230;42.602;23.470;2023-03-23T09:56:49;93647.84;;;14.12;56.08
11053;BME280;55230;42.602;23.470;2023-03-23T09:59:20;93555.38;;;13.19;60.50
11053;BME280;55230;42.602;23.470;2023-03-23T10:01:49;93638.69;;;13.24;59.73
11053;BME280;55230;42.602;23.470;2023-03-23T10:04:25;93575.38;;;11.60;66.49
11053;BME280;55230;42.602;23.470;2023-03-23T10:06:57;93624.78;;;12.15;66.79
11053;BME280;55230;42.602;23.470;2023-03-23T10:09:28;93618.41;;;12.36;68.09
11053;BME280;55230;42.602;23.470;2023-03-23T10:12:02;93626.56;;;13.10;65.95
11053;BME280;55230;42.602;23.470;2023-03-23T10:14:40;93601.25;;;13.22;59.94
11053;BME280;55230;42.602;23.470;2023-03-23T10:17:14;93628.78;;;13.68;62.89
11053;BME280;55230;42.602;23.470;2023-03-23T10:19:47;93625.16;;;13.71;57.82
11053;BME280;55230;42.602;23.470;2023-03-23T10:22:20;93613.44;;;14.03;57.50
11053;BME280;55230;42.602;23.470;2023-03-23T10:24:54;93572.69;;;14.12;57.22
11053;BME280;55230;42.602;23.470;2023-03-23T10:27:26;93615.47;;;13.55;56.46
11053;BME280;55230;42.602;23.470;2023-03-23T10:30:00;93437.38;;;12.09;55.66
11053;BME280;55230;42.602;23.470;2023-03-23T10:32:40;93581.75;;;13.33;58.43
11053;BME280;55230;42.602;23.470;2023-03-23T10:35:12;93589.44;;;13.72;59.93
11053;BME280;55230;42.602;23.470;2023-03-23T10:37:44;93596.91;;;14.01;55.99
11053;BME280;55230;42.602;23.470;2023-03-23T10:40:16;93642.63;;;13.70;55.04
11053;BME280;55230;42.602;23.470;2023-03-23T10:42:45;93604.28;;;14.01;54.35
11053;BME280;55230;42.602;23.470;2023-03-23T10:45:17;93609.94;;;13.03;59.01
11053;BME280;55230;42.602;23.470;2023-03-23T10:47:49;93627.91;;;13.15;60.49
11053;BME280;55230;42.602;23.470;2023-03-23T10:50:23;93566.75;;;12.99;56.63
11053;BME280;55230;42.602;23.470;2023-03-23T10:52:52;93489.28;;;11.71;56.88
11053;BME280;55230;42.602;23.470;2023-03-23T10:55:24;93573.06;;;12.96;54.25
11053;BME280;55230;42.602;23.470;2023-03-23T10:57:59;93558.25;;;13.39;52.73
11053;BME280;55230;42.602;23.470;2023-03-23T11:00:28;93528.13;;;13.46;54.96
11053;BME280;55230;42.602;23.470;2023-03-23T11:03:00;93495.72;;;12.80;53.76
11053;BME280;55230;42.602;23.470;2023-03-23T11:05:34;93603.47;;;13.71;52.75
11053;BME280;55230;42.602;23.470;2023-03-23T11:08:02;93533.72;;;13.57;53.31
11053;BME280;55230;42.602;23.470;2023-03-23T11:10:39;93602.88;;;13.67;52.96
11053;BME280;55230;42.602;23.470;2023-03-23T11:13:12;93562.56;;;13.98;54.31
11053;BME280;55230;42.602;23.470;2023-03-23T11:15:41;93558.66;;;14.57;57.12
11053;BME280;55230;42.602;23.470;2023-03-23T11:18:11;93597.56;;;15.18;51.49
11053;BME280;55230;42.602;23.470;2023-03-23T11:20:41;93580.09;;;15.04;54.22
11053;BME280;55230;42.602;23.470;2023-03-23T11:23:18;93583.81;;;15.62;52.01
11053;BME280;55230;42.602;23.470;2023-03-23T11:26:08;93505.56;;;15.46;49.44
11053;BME280;55230;42.602;23.470;2023-03-23T11:28:37;93493.56;;;15.38;49.05
11053;BME280;55230;42.602;23.470;2023-03-23T11:31:05;93514.69;;;14.53;49.12
11053;BME280;55230;42.602;23.470;2023-03-23T11:33:37;93574.38;;;14.53;53.48
11053;BME280;55230;42.602;23.470;2023-03-23T11:36:06;93511.50;;;13.53;56.46
11053;BME280;55230;42.602;23.470;2023-03-23T11:38:35;93563.81;;;13.59;55.59
11053;BME280;55230;42.602;23.470;2023-03-23T11:41:09;93564.72;;;13.18;57.50
11053;BME280;55230;42.602;23.470;2023-03-23T11:43:39;93561.19;;;13.50;59.93
11053;BME280;55230;42.602;23.470;2023-03-23T11:46:13;93553.22;;;13.46;55.73
11053;BME280;55230;42.602;23.470;2023-03-23T11:48:44;93222.78;;;10.61;57.06
11053;BME280;55230;42.602;23.470;2023-03-23T11:51:19;93458.44;;;12.61;59.25
11053;BME280;55230;42.602;23.470;2023-03-23T11:53:50;93415.72;;;12.41;57.30
11053;BME280;55230;42.602;23.470;2023-03-23T11:56:24;93549.97;;;13.57;56.77
11053;BME280;55230;42.602;23.470;2023-03-23T11:58:53;93547.34;;;13.48;55.70
11053;BME280;55230;42.602;23.470;2023-03-23T12:01:39;93495.91;;;13.10;56.90
11053;BME280;55230;42.602;23.470;2023-03-23T12:04:25;93549.28;;;13.71;57.02
11053;BME280;55230;42.602;23.470;2023-03-23T12:07:12;93543.88;;;13.85;56.91
11053;BME280;55230;42.602;23.470;2023-03-23T12:09:48;93508.88;;;13.44;58.77
11053;BME280;55230;42.602;23.470;2023-03-23T12:12:25;93518.16;;;13.81;54.53
11053;BME280;55230;42.602;23.470;2023-03-23T12:15:08;93537.78;;;13.76;57.35
11053;BME280;55230;42.602;23.470;2023-03-23T12:17:47;93533.78;;;13.48;57.03
11053;BME280;55230;42.602;23.470;2023-03-23T12:20:27;93545.31;;;13.57;56.11
11053;BME280;55230;42.602;23.470;2023-03-23T12:23:03;93441.94;;;13.21;55.12
11053;BME280;55230;42.602;23.470;2023-03-23T12:25:47;93539.59;;;14.23;54.77
11053;BME280;55230;42.602;23.470;2023-03-23T12:28:32;93532.13;;;14.32;54.94
11053;BME280;55230;42.602;23.470;2023-03-23T12:31:04;93524.94;;;13.62;53.73
11053;BME280;55230;42.602;23.470;2023-03-23T12:33:44;93537.00;;;13.61;55.22
11053;BME280;55230;42.602;23.470;2023-03-23T12:36:23;93525.97;;;13.50;56.39
11053;BME280;55230;42.602;23.470;2023-03-23T12:39:39;93532.06;;;13.59;57.92
11053;BME280;55230;42.602;23.470;2023-03-23T12:42:16;93537.38;;;13.54;53.42
11053;BME280;55230;42.602;23.470;2023-03-23T12:44:50;93438.84;;;13.13;54.58
11053;BME280;55230;42.602;23.470;2023-03-23T12:47:32;93497.13;;;13.61;52.73
11053;BME280;55230;42.602;23.470;2023-03-23T12:50:04;93539.22;;;14.01;53.51
11053;BME280;55230;42.602;23.470;2023-03-23T12:52:38;93533.41;;;14.22;52.88
11053;BME280;55230;42.602;23.470;2023-03-23T12:55:15;93543.50;;;14.07;53.94
11053;BME280;55230;42.602;23.470;2023-03-23T12:57:47;93415.84;;;13.47;56.20
11053;BME280;55230;42.602;23.470;2023-03-23T13:00:22;93486.75;;;14.04;52.25
11053;BME280;55230;42.602;23.470;2023-03-23T13:02:53;93525.28;;;14.86;53.37
11053;BME280;55230;42.602;23.470;2023-03-23T13:05:31;93521.44;;;15.13;50.52
11053;BME280;55230;42.602;23.470;2023-03-23T13:08:02;93522.59;;;15.06;51.47
11053;BME280;55230;42.602;23.470;2023-03-23T13:10:33;93523.59;;;15.08;50.12
11053;BME280;55230;42.602;23.470;2023-03-23T13:13:02;93523.53;;;14.34;50.46